Time;durP1;ratioP1;P1;durP2;ratioP2;P2;SDS_P1;SDS_P2;PMS_P1;PMS_P2;Temp;Humidity;BMP_temperature;BMP_pressure;BME280_temperature;BME280_humidity;BME280_pressure;Samples;Min_cycle;Max_cycle;Signal;HPM_P1;HPM_P2
2021/06/21 00:02:23;;;;;;;;;;;;;;;23.10;58.28;99340.23;1654532;86;20154;-93
2021/06/21 00:04:53;;;;;;;;;;;;;;;23.08;58.37;99334.25;1654152;86;20178;-92
2021/06/21 00:07:20;;;;;;;;;;;;;;;23.06;58.31;99337.67;1654121;87;20117;-91
2021/06/21 00:09:45;;;;;;;;;;;;;;;23.03;58.35;99332.20;1653445;86;20141;-92
2021/06/21 00:12:14;;;;;;;;;;;;;;;23.01;58.41;99338.33;1653530;86;20443;-91
2021/06/21 00:14:40;;;;;;;;;;;;;;;22.99;58.54;99328.82;1653739;87;20490;-92
2021/06/21 00:17:06;;;;;;;;;;;;;;;22.98;58.52;99325.31;1654872;86;20121;-92
2021/06/21 00:19:32;;;;;;;;;;;;;;;22.96;58.67;99327.38;1639074;86;20136;-93
2021/06/21 00:21:58;;;;;;;;;;;;;;;22.92;58.83;99319.41;1653612;86;20109;-93
2021/06/21 00:24:24;;;;;;;;;;;;;;;22.89;58.95;99328.73;1653594;86;20161;-92
2021/06/21 00:26:51;;;;;;;;;;;;;;;22.84;58.84;99317.81;1653569;86;20113;-93
2021/06/21 00:29:17;;;;;;;;;;;;;;;22.83;58.98;99318.83;1654714;86;20415;-92
2021/06/21 00:31:44;;;;;;;;;;;;;;;22.81;59.04;99311.52;1655010;86;20121;-93
2021/06/21 00:34:10;;;;;;;;;;;;;;;22.79;59.11;99312.24;1654963;87;20560;-93
2021/06/21 00:36:36;;;;;;;;;;;;;;;22.76;59.47;99300.56;1655008;86;20142;-93
2021/06/21 00:39:04;;;;;;;;;;;;;;;22.74;59.30;99303.16;1654976;87;20115;-94
2021/06/21 00:41:30;;;;;;;;;;;;;;;22.70;59.39;99296.05;1653637;87;20125;-93
2021/06/21 00:43:56;;;;;;;;;;;;;;;22.69;59.39;99295.75;1653817;86;20121;-93
2021/06/21 00:46:22;;;;;;;;;;;;;;;22.67;59.58;99300.02;1653563;86;20165;-91
2021/06/21 00:48:48;;;;;;;;;;;;;;;22.66;59.54;99296.18;1654951;86;20119;-93
2021/06/21 00:51:14;;;;;;;;;;;;;;;22.63;59.63;99290.70;1655044;87;20417;-93
2021/06/21 00:53:40;;;;;;;;;;;;;;;22.62;59.75;99293.63;1654933;87;20138;-93
2021/06/21 00:56:06;;;;;;;;;;;;;;;22.59;59.80;99298.91;1655036;86;20120;-94
2021/06/21 00:58:31;;;;;;;;;;;;;;;22.56;59.88;99297.16;1654974;86;20538;-93
2021/06/21 01:00:57;;;;;;;;;;;;;;;22.54;59.93;99298.73;1655042;87;20148;-93
2021/06/21 01:03:23;;;;;;;;;;;;;;;22.52;60.08;99302.67;1655045;86;20145;-93
2021/06/21 01:05:49;;;;;;;;;;;;;;;22.50;60.28;99300.70;1653607;87;20161;-93
2021/06/21 01:08:14;;;;;;;;;;;;;;;22.46;60.42;99302.47;1632981;87;20121;-93
2021/06/21 01:10:46;;;;;;;;;;;;;;;22.43;60.54;99302.89;1653614;86;20129;-93
2021/06/21 01:13:32;;;;;;;;;;;;;;;22.40;60.74;99312.73;1654820;86;20117;-93
2021/06/21 01:16:19;;;;;;;;;;;;;;;22.39;60.72;99312.95;1654852;85;20288;-94
2021/06/21 01:19:18;;;;;;;;;;;;;;;22.36;60.97;99312.03;1654961;86;20455;-94
2021/06/21 01:21:53;;;;;;;;;;;;;;;22.33;60.95;99320.52;1654777;87;20093;-94
2021/06/21 01:24:37;;;;;;;;;;;;;;;22.28;61.09;99317.13;1593585;86;20121;-95
2021/06/21 01:27:26;;;;;;;;;;;;;;;22.26;61.20;99315.69;1654804;86;20132;-94
2021/06/21 01:30:10;;;;;;;;;;;;;;;22.22;61.53;99309.91;1646097;87;20132;-94
2021/06/21 01:32:47;;;;;;;;;;;;;;;22.18;61.26;99314.89;1654844;86;20407;-94
2021/06/21 01:35:23;;;;;;;;;;;;;;;22.15;61.50;99313.11;1654937;86;20133;-95
2021/06/21 01:37:51;;;;;;;;;;;;;;;22.13;61.70;99311.14;1654803;87;20395;-94
2021/06/21 01:40:19;;;;;;;;;;;;;;;22.10;61.88;99308.88;1654919;86;20424;-94
2021/06/21 01:42:47;;;;;;;;;;;;;;;22.06;62.07;99305.79;1654927;86;20113;-94
2021/06/21 01:45:16;;;;;;;;;;;;;;;22.04;61.99;99311.06;1654939;85;20125;-95
2021/06/21 01:47:43;;;;;;;;;;;;;;;22.01;62.39;99315.83;1654970;85;20145;-95
2021/06/21 01:50:10;;;;;;;;;;;;;;;21.97;62.68;99315.92;1641597;87;20113;-94
2021/06/21 01:52:38;;;;;;;;;;;;;;;21.94;62.46;99320.37;1655060;86;20388;-95
2021/06/21 01:55:06;;;;;;;;;;;;;;;21.91;62.63;99318.09;1655153;86;20109;-94
2021/06/21 01:57:33;;;;;;;;;;;;;;;21.87;62.76;99321.42;1655210;87;20130;-94
2021/06/21 02:00:08;;;;;;;;;;;;;;;21.84;62.91;99318.62;1655068;86;20197;-95
2021/06/21 02:02:35;;;;;;;;;;;;;;;21.80;62.97;99314.72;1654278;86;20443;-94
2021/06/21 02:05:03;;;;;;;;;;;;;;;21.76;62.97;99326.92;1655147;87;20153;-95
2021/06/21 02:07:29;;;;;;;;;;;;;;;21.71;63.48;99328.05;1655071;86;20419;-95
2021/06/21 02:09:55;;;;;;;;;;;;;;;21.66;63.37;99326.00;1655312;87;20125;-94
2021/06/21 02:12:23;;;;;;;;;;;;;;;21.61;63.65;99328.98;1655151;86;20423;-94
2021/06/21 02:14:51;;;;;;;;;;;;;;;21.58;63.80;99329.39;1655236;86;20424;-95
2021/06/21 02:17:22;;;;;;;;;;;;;;;21.52;64.06;99319.81;1655048;87;20130;-95
2021/06/21 02:19:50;;;;;;;;;;;;;;;21.48;63.99;99315.86;1655211;86;20113;-94
2021/06/21 02:22:24;;;;;;;;;;;;;;;21.45;64.16;99310.91;1655229;86;20120;-94
2021/06/21 02:24:52;;;;;;;;;;;;;;;21.42;64.34;99311.34;1655108;86;20409;-93
2021/06/21 02:27:20;;;;;;;;;;;;;;;21.40;64.35;99315.27;1654980;86;20115;-93
2021/06/21 02:29:48;;;;;;;;;;;;;;;21.38;64.70;99311.95;1655327;87;20163;-94
2021/06/21 02:32:15;;;;;;;;;;;;;;;21.34;64.70;99309.34;1654999;86;20119;-94
2021/06/21 02:34:41;;;;;;;;;;;;;;;21.29;64.93;99306.77;1655164;86;20117;-94
2021/06/21 02:37:07;;;;;;;;;;;;;;;21.27;64.90;99308.00;1655123;86;20405;-94
2021/06/21 02:39:33;;;;;;;;;;;;;;;21.24;65.10;99305.72;1655257;87;20107;-94
2021/06/21 02:41:59;;;;;;;;;;;;;;;21.22;65.21;99297.05;1655087;87;20166;-94
2021/06/21 02:44:25;;;;;;;;;;;;;;;21.19;65.17;99297.45;1655235;86;20134;-94
2021/06/21 02:46:50;;;;;;;;;;;;;;;21.17;65.27;99298.19;1655029;87;20127;-94
2021/06/21 02:49:16;;;;;;;;;;;;;;;21.14;65.67;99291.38;1655336;87;20155;-93
2021/06/21 02:51:45;;;;;;;;;;;;;;;21.13;65.71;99300.98;1655067;87;20140;-94
2021/06/21 02:54:25;;;;;;;;;;;;;;;21.10;65.81;99301.39;1655165;87;20494;-94
2021/06/21 02:57:22;;;;;;;;;;;;;;;21.07;65.89;99306.11;1655001;86;20159;-93
2021/06/21 02:59:47;;;;;;;;;;;;;;;21.05;66.03;99309.50;1654332;86;20130;-94
2021/06/21 03:02:16;;;;;;;;;;;;;;;21.01;66.24;99316.31;1655152;86;20437;-94
2021/06/21 03:04:43;;;;;;;;;;;;;;;20.99;66.34;99305.47;1655195;86;20150;-94
2021/06/21 03:07:11;;;;;;;;;;;;;;;20.96;66.41;99308.55;1655044;87;20123;-94
2021/06/21 03:09:41;;;;;;;;;;;;;;;20.94;66.46;99301.25;1655185;86;20233;-93
2021/06/21 03:12:07;;;;;;;;;;;;;;;20.92;66.62;99307.31;1655042;86;20405;-94
2021/06/21 03:14:34;;;;;;;;;;;;;;;20.90;66.67;99313.41;1655273;87;20099;-94
2021/06/21 03:17:06;;;;;;;;;;;;;;;20.86;67.03;99311.62;1654997;86;20142;-94
2021/06/21 03:19:29;;;;;;;;;;;;;;;20.84;67.10;99310.50;1654648;87;20188;-94
2021/06/21 03:21:55;;;;;;;;;;;;;;;20.83;66.92;99312.06;1654864;87;20186;-94
2021/06/21 03:24:23;;;;;;;;;;;;;;;20.82;67.00;99309.87;1654954;87;20192;-94
2021/06/21 03:26:49;;;;;;;;;;;;;;;20.81;67.12;99309.56;1654804;87;20437;-94
2021/06/21 03:29:17;;;;;;;;;;;;;;;20.79;67.43;99318.83;1654809;87;20138;-94
2021/06/21 03:31:48;;;;;;;;;;;;;;;20.78;67.56;99319.35;1654695;86;20147;-94
2021/06/21 03:34:15;;;;;;;;;;;;;;;20.76;67.81;99320.08;1654819;87;20131;-94
2021/06/21 03:36:41;;;;;;;;;;;;;;;20.75;67.93;99324.29;1654875;86;20151;-93
2021/06/21 03:39:06;;;;;;;;;;;;;;;20.74;67.76;99331.51;1654950;86;20470;-93
2021/06/21 03:41:33;;;;;;;;;;;;;;;20.74;68.19;99331.51;1654737;86;20441;-94
2021/06/21 03:43:59;;;;;;;;;;;;;;;20.74;67.97;99326.67;1654782;87;20150;-94
2021/06/21 03:46:24;;;;;;;;;;;;;;;20.73;68.05;99335.23;1654971;86;20245;-94
2021/06/21 03:48:50;;;;;;;;;;;;;;;20.73;68.80;99341.08;1655188;86;20103;-93
2021/06/21 03:51:18;;;;;;;;;;;;;;;20.73;68.31;99351.80;1655167;86;20248;-94
2021/06/21 03:53:44;;;;;;;;;;;;;;;20.73;68.97;99348.63;1655004;87;20105;-93
2021/06/21 03:56:09;;;;;;;;;;;;;;;20.69;68.65;99339.83;1655130;87;20147;-94
2021/06/21 03:58:35;;;;;;;;;;;;;;;20.70;68.67;99347.69;1655167;87;20122;-93
2021/06/21 04:01:01;;;;;;;;;;;;;;;20.70;68.92;99341.51;1654997;86;20143;-94
2021/06/21 04:03:26;;;;;;;;;;;;;;;20.72;68.77;99339.44;1655108;86;20161;-93
2021/06/21 04:05:52;;;;;;;;;;;;;;;20.73;68.91;99339.73;1655027;86;20121;-93
2021/06/21 04:08:18;;;;;;;;;;;;;;;20.74;69.14;99337.39;1655006;87;20149;-94
2021/06/21 04:10:45;;;;;;;;;;;;;;;20.74;69.01;99334.19;1655003;87;20109;-94
2021/06/21 04:13:12;;;;;;;;;;;;;;;20.76;69.39;99328.61;1654932;87;20119;-94
2021/06/21 04:15:38;;;;;;;;;;;;;;;20.77;69.66;99329.77;1655015;86;20182;-94
2021/06/21 04:18:10;;;;;;;;;;;;;;;20.80;69.28;99331.23;1654983;86;20112;-94
2021/06/21 04:20:36;;;;;;;;;;;;;;;20.81;69.73;99331.53;1655168;87;20258;-94
2021/06/21 04:23:04;;;;;;;;;;;;;;;20.83;69.70;99324.13;1655039;86;20120;-94
2021/06/21 04:25:29;;;;;;;;;;;;;;;20.85;69.75;99324.21;1654961;86;20101;-93
2021/06/21 04:27:55;;;;;;;;;;;;;;;20.89;69.92;99329.99;1655078;87;20442;-94
2021/06/21 04:30:23;;;;;;;;;;;;;;;20.90;70.13;99324.96;1655012;86;20510;-93
2021/06/21 04:32:49;;;;;;;;;;;;;;;20.94;70.19;99322.18;1655016;86;20140;-93
2021/06/21 04:35:17;;;;;;;;;;;;;;;20.97;70.27;99320.95;1641532;87;20140;-94
2021/06/21 04:37:43;;;;;;;;;;;;;;;21.00;70.48;99317.88;1655219;86;20129;-94
2021/06/21 04:40:14;;;;;;;;;;;;;;;21.05;70.65;99319.41;1655159;86;20434;-93
2021/06/21 04:42:40;;;;;;;;;;;;;;;21.07;70.58;99326.23;1654885;86;20125;-94
2021/06/21 04:45:07;;;;;;;;;;;;;;;21.12;70.68;99334.99;1654924;86;20125;-93
2021/06/21 04:47:33;;;;;;;;;;;;;;;21.18;71.00;99342.75;1654803;86;20105;-93
2021/06/21 04:50:03;;;;;;;;;;;;;;;21.22;70.92;99333.25;1655106;87;20125;-93
2021/06/21 04:52:28;;;;;;;;;;;;;;;21.26;71.06;99335.34;1654405;86;20126;-93
2021/06/21 04:55:01;;;;;;;;;;;;;;;21.31;70.89;99334.72;1654975;86;20131;-92
2021/06/21 04:57:22;;;;;;;;;;;;;;;21.36;70.80;99332.30;1660612;86;20160;-93
2021/06/21 04:59:48;;;;;;;;;;;;;;;21.42;70.94;99338.67;1668787;86;20180;-93
2021/06/21 05:02:14;;;;;;;;;;;;;;;21.47;71.07;99334.34;1668762;86;20177;-93
2021/06/21 05:04:39;;;;;;;;;;;;;;;21.51;71.10;99328.88;1668967;85;20158;-93
2021/06/21 05:07:05;;;;;;;;;;;;;;;21.56;71.14;99318.88;1668838;86;20515;-91
2021/06/21 05:09:31;;;;;;;;;;;;;;;21.62;71.15;99312.69;1668928;86;20177;-94
2021/06/21 05:11:57;;;;;;;;;;;;;;;21.68;71.35;99307.80;1668806;85;20191;-93
2021/06/21 05:14:23;;;;;;;;;;;;;;;21.75;71.36;99309.13;1669010;85;20156;-93
2021/06/21 05:16:48;;;;;;;;;;;;;;;21.81;71.45;99292.20;1668867;85;20161;-95
2021/06/21 05:19:14;;;;;;;;;;;;;;;21.86;71.36;99293.75;1668772;86;20156;-94
2021/06/21 05:21:40;;;;;;;;;;;;;;;21.93;71.09;99294.55;1668595;85;20137;-94
2021/06/21 05:24:05;;;;;;;;;;;;;;;21.98;71.33;99297.45;1668988;86;20145;-93
2021/06/21 05:26:31;;;;;;;;;;;;;;;22.06;71.36;99300.94;1668947;85;20161;-94
2021/06/21 05:28:57;;;;;;;;;;;;;;;22.12;71.16;99298.76;1668890;85;20172;-93
2021/06/21 05:31:22;;;;;;;;;;;;;;;22.15;71.19;99289.78;1668836;86;20156;-94
2021/06/21 05:33:49;;;;;;;;;;;;;;;22.23;71.23;99288.19;1668759;86;20153;-93
2021/06/21 05:36:14;;;;;;;;;;;;;;;22.30;71.10;99288.16;1668642;86;20471;-94
2021/06/21 05:38:40;;;;;;;;;;;;;;;22.36;71.10;99281.12;1668789;86;20181;-92
2021/06/21 05:41:06;;;;;;;;;;;;;;;22.41;71.26;99282.15;1668796;86;20157;-94
2021/06/21 05:43:32;;;;;;;;;;;;;;;22.47;71.23;99275.92;1668773;86;20200;-92
2021/06/21 05:45:58;;;;;;;;;;;;;;;22.55;71.12;99265.95;1668904;85;20160;-94
2021/06/21 05:48:23;;;;;;;;;;;;;;;22.61;71.15;99264.58;1668710;85;20141;-95
2021/06/21 05:50:50;;;;;;;;;;;;;;;22.68;71.14;99259.16;1668893;85;20143;-94
2021/06/21 05:53:17;;;;;;;;;;;;;;;22.75;71.00;99264.50;1668716;86;20157;-94
2021/06/21 05:55:42;;;;;;;;;;;;;;;22.81;70.94;99269.02;1668754;85;20148;-94
2021/06/21 05:58:08;;;;;;;;;;;;;;;22.88;70.81;99277.86;1668850;85;20506;-94
2021/06/21 06:00:34;;;;;;;;;;;;;;;22.94;71.03;99275.16;1665793;86;20108;-93
2021/06/21 06:03:00;;;;;;;;;;;;;;;23.01;70.91;99283.19;1645717;86;20127;-93
2021/06/21 06:05:26;;;;;;;;;;;;;;;23.06;70.51;99287.38;1627315;87;20163;-93
2021/06/21 06:07:51;;;;;;;;;;;;;;;23.12;70.68;99297.80;1626935;87;20131;-93
2021/06/21 06:10:17;;;;;;;;;;;;;;;23.16;70.56;99286.39;1627009;88;20159;-94
2021/06/21 06:12:44;;;;;;;;;;;;;;;23.22;70.60;99285.20;1627018;88;20391;-93
2021/06/21 06:15:11;;;;;;;;;;;;;;;23.30;70.34;99290.33;1627182;87;20159;-92
2021/06/21 06:17:37;;;;;;;;;;;;;;;23.36;69.99;99291.63;1626873;88;20446;-93
2021/06/21 06:20:05;;;;;;;;;;;;;;;23.41;70.20;99291.77;1627088;87;20112;-93
2021/06/21 06:22:31;;;;;;;;;;;;;;;23.47;70.05;99286.56;1626983;88;20152;-93
2021/06/21 06:24:56;;;;;;;;;;;;;;;23.52;70.04;99279.45;1627195;88;20159;-93
2021/06/21 06:27:22;;;;;;;;;;;;;;;23.59;69.96;99277.55;1626825;88;20135;-93
2021/06/21 06:29:48;;;;;;;;;;;;;;;23.67;69.77;99281.82;1627134;88;20120;-93
2021/06/21 06:32:13;;;;;;;;;;;;;;;23.74;69.76;99296.07;1626961;87;20128;-93
2021/06/21 06:34:39;;;;;;;;;;;;;;;23.79;69.56;99289.51;1633380;87;20137;-93
2021/06/21 06:37:06;;;;;;;;;;;;;;;23.83;69.59;99279.93;1654851;86;20137;-93
2021/06/21 06:39:33;;;;;;;;;;;;;;;23.91;69.34;99286.06;1655081;87;20165;-93
2021/06/21 06:41:59;;;;;;;;;;;;;;;23.97;69.16;99281.14;1654891;86;20652;-93
2021/06/21 06:44:25;;;;;;;;;;;;;;;24.04;69.44;99280.53;1655020;86;20140;-87
2021/06/21 06:46:51;;;;;;;;;;;;;;;24.11;69.41;99282.63;1654433;87;20196;-88
2021/06/21 06:49:17;;;;;;;;;;;;;;;24.18;69.13;99280.67;1654656;87;20145;-88
2021/06/21 06:51:44;;;;;;;;;;;;;;;24.27;68.99;99284.72;1652581;86;20122;-88
2021/06/21 06:57:03;;;;;;;;;;;;;;;24.42;68.86;99290.30;1652769;86;20467;-87
2021/06/21 06:59:33;;;;;;;;;;;;;;;24.49;68.77;99289.69;1651074;85;20151;-88
2021/06/21 07:02:01;;;;;;;;;;;;;;;24.56;67.87;99286.37;1673130;85;20144;-87
2021/06/21 07:04:29;;;;;;;;;;;;;;;24.62;68.03;99280.07;1664604;85;20141;-88
2021/06/21 07:06:54;;;;;;;;;;;;;;;24.71;68.10;99280.55;1681458;85;20138;-87
2021/06/21 07:09:20;;;;;;;;;;;;;;;24.78;67.62;99279.96;1681969;85;20155;-88
2021/06/21 07:11:50;;;;;;;;;;;;;;;24.87;67.84;99269.65;1681533;85;20162;-88
2021/06/21 07:14:14;;;;;;;;;;;;;;;24.94;67.38;99268.52;1666710;85;20167;-88
2021/06/21 07:16:40;;;;;;;;;;;;;;;25.01;67.40;99263.84;1654511;85;20144;-88
2021/06/21 07:19:06;;;;;;;;;;;;;;;25.09;67.06;99269.95;1681930;85;20087;-89
2021/06/21 07:21:32;;;;;;;;;;;;;;;25.18;67.44;99266.72;1682073;85;20098;-88
2021/06/21 07:23:58;;;;;;;;;;;;;;;25.28;67.21;99262.63;1681785;85;20466;-88
2021/06/21 07:26:24;;;;;;;;;;;;;;;25.37;66.94;99272.85;1681880;84;20130;-88
2021/06/21 07:28:50;;;;;;;;;;;;;;;25.46;67.18;99271.42;1681879;84;20103;-86
2021/06/21 07:31:16;;;;;;;;;;;;;;;25.57;66.93;99267.11;1681612;84;20153;-87
2021/06/21 07:33:42;;;;;;;;;;;;;;;25.67;66.99;99262.47;1664189;84;20415;-88
2021/06/21 07:36:08;;;;;;;;;;;;;;;25.76;66.44;99271.02;1654226;87;20105;-87
2021/06/21 07:38:34;;;;;;;;;;;;;;;25.84;66.18;99262.07;1654510;87;20133;-87
2021/06/21 07:41:00;;;;;;;;;;;;;;;25.94;65.73;99261.47;1654455;86;20132;-87
2021/06/21 07:43:25;;;;;;;;;;;;;;;26.02;65.75;99259.73;1654427;87;20145;-87
2021/06/21 07:45:51;;;;;;;;;;;;;;;26.12;65.79;99257.78;1657752;85;20180;-86
2021/06/21 07:48:18;;;;;;;;;;;;;;;26.23;65.53;99262.89;1648954;86;20177;-87
2021/06/21 07:50:43;;;;;;;;;;;;;;;26.32;65.34;99263.59;1679336;85;20458;-87
2021/06/21 07:53:09;;;;;;;;;;;;;;;26.43;65.45;99269.52;1675329;85;20121;-87
2021/06/21 07:55:35;;;;;;;;;;;;;;;26.56;64.94;99269.80;1681907;85;20134;-87
2021/06/21 07:58:01;;;;;;;;;;;;;;;26.69;65.22;99270.05;1682006;85;20130;-87
2021/06/21 08:00:28;;;;;;;;;;;;;;;26.79;65.03;99265.35;1672254;85;20606;-88
2021/06/21 08:02:55;;;;;;;;;;;;;;;26.90;64.62;99261.75;1676530;85;20152;-87
2021/06/21 08:05:22;;;;;;;;;;;;;;;27.02;64.94;99271.98;1672630;85;20471;-89
2021/06/21 08:07:48;;;;;;;;;;;;;;;27.11;65.42;99269.17;1654265;87;20142;-88
2021/06/21 08:10:15;;;;;;;;;;;;;;;27.25;64.21;99271.05;1654549;86;20132;-87
2021/06/21 08:12:42;;;;;;;;;;;;;;;27.34;63.46;99265.52;1654033;87;20102;-86
2021/06/21 08:15:10;;;;;;;;;;;;;;;27.43;63.01;99267.80;1654611;86;20101;-86
2021/06/21 08:17:37;;;;;;;;;;;;;;;27.51;63.22;99273.62;1653366;86;20165;-86
2021/06/21 08:20:04;;;;;;;;;;;;;;;27.62;62.96;99268.36;1654637;86;20136;-87
2021/06/21 08:22:30;;;;;;;;;;;;;;;27.72;62.69;99264.44;1651361;86;20141;-87
2021/06/21 08:24:55;;;;;;;;;;;;;;;27.81;62.33;99262.98;1641767;85;20156;-87
2021/06/21 08:27:21;;;;;;;;;;;;;;;27.91;62.29;99255.53;1655822;85;20399;-87
2021/06/21 08:29:47;;;;;;;;;;;;;;;28.00;62.06;99254.84;1652915;87;20169;-88
2021/06/21 08:32:13;;;;;;;;;;;;;;;28.10;61.72;99260.94;1654464;85;20132;-87
2021/06/21 08:34:39;;;;;;;;;;;;;;;28.19;61.30;99264.82;1655748;85;20132;-87
2021/06/21 08:37:05;;;;;;;;;;;;;;;28.30;61.43;99259.00;1654333;86;20418;-86
2021/06/21 08:39:31;;;;;;;;;;;;;;;28.40;61.36;99261.05;1654687;87;20161;-87
2021/06/21 08:41:57;;;;;;;;;;;;;;;28.50;60.95;99258.45;1654175;86;20392;-87
2021/06/21 08:44:23;;;;;;;;;;;;;;;28.61;59.88;99254.76;1654601;86;20415;-86
2021/06/21 08:46:50;;;;;;;;;;;;;;;28.71;59.46;99257.58;1654117;87;20158;-86
2021/06/21 08:49:18;;;;;;;;;;;;;;;28.81;60.28;99256.05;1654660;86;20602;-87
2021/06/21 08:51:45;;;;;;;;;;;;;;;28.90;59.65;99249.89;1648746;85;20464;-87
2021/06/21 08:54:11;;;;;;;;;;;;;;;29.01;59.14;99252.72;1663771;85;20160;-87
2021/06/21 08:56:37;;;;;;;;;;;;;;;29.09;58.85;99253.08;1658482;85;20156;-87
2021/06/21 08:59:06;;;;;;;;;;;;;;;29.16;59.13;99252.32;1646248;85;20219;-87
2021/06/21 09:01:40;;;;;;;;;;;;;;;29.24;58.51;99260.52;1636324;87;20177;-87
2021/06/21 09:04:10;;;;;;;;;;;;;;;29.31;58.75;99253.52;1654284;85;20124;-87
2021/06/21 09:06:38;;;;;;;;;;;;;;;29.41;59.02;99254.94;1652805;85;20397;-87
2021/06/21 09:09:04;;;;;;;;;;;;;;;29.51;58.47;99255.02;1631193;85;20484;-86
2021/06/21 09:11:49;;;;;;;;;;;;;;;29.61;58.49;99248.31;1681757;85;20156;-86
2021/06/21 09:14:31;;;;;;;;;;;;;;;29.71;58.03;99248.91;1647374;85;20161;-87
2021/06/21 09:17:08;;;;;;;;;;;;;;;29.81;57.07;99242.72;1648386;85;20547;-87
2021/06/21 09:19:53;;;;;;;;;;;;;;;29.87;57.01;99245.20;1650342;85;20522;-86
2021/06/21 09:22:34;;;;;;;;;;;;;;;29.97;55.88;99240.89;1646284;86;20113;-87
2021/06/21 09:25:18;;;;;;;;;;;;;;;30.07;56.44;99239.58;1664948;85;20126;-86
2021/06/21 09:27:56;;;;;;;;;;;;;;;30.16;55.20;99237.98;1664896;85;20271;-86
2021/06/21 09:30:23;;;;;;;;;;;;;;;30.26;54.50;99233.16;1650624;85;20308;-86
2021/06/21 09:32:51;;;;;;;;;;;;;;;30.33;55.01;99233.72;1653615;85;20166;-87
2021/06/21 09:35:30;;;;;;;;;;;;;;;30.42;55.05;99229.95;1650964;85;20291;-86
2021/06/21 09:37:58;;;;;;;;;;;;;;;30.51;54.51;99231.06;1645361;87;20113;-86
2021/06/21 09:40:30;;;;;;;;;;;;;;;30.59;54.34;99219.64;1638436;86;20650;-87
2021/06/21 09:42:56;;;;;;;;;;;;;;;30.67;53.54;99218.28;1640379;87;20113;-86
2021/06/21 09:45:22;;;;;;;;;;;;;;;30.73;53.27;99215.84;1641276;87;20599;-86
2021/06/21 09:47:48;;;;;;;;;;;;;;;30.80;53.37;99225.95;1646437;86;20180;-87
2021/06/21 09:50:23;;;;;;;;;;;;;;;30.87;53.04;99217.54;1640870;87;20161;-86
2021/06/21 09:53:00;;;;;;;;;;;;;;;30.94;51.59;99227.06;1642546;87;20136;-86
2021/06/21 09:55:29;;;;;;;;;;;;;;;30.98;52.18;99224.06;1633494;87;20140;-86
2021/06/21 09:58:17;;;;;;;;;;;;;;;31.04;52.54;99223.53;1647777;85;20123;-86
2021/06/21 10:00:52;;;;;;;;;;;;;;;31.13;52.44;99216.97;1650873;85;20222;-86
2021/06/21 10:03:20;;;;;;;;;;;;;;;31.22;52.31;99216.70;1641087;87;20418;-86
2021/06/21 10:06:05;;;;;;;;;;;;;;;31.31;52.58;99213.70;1643711;85;20140;-86
2021/06/21 10:08:50;;;;;;;;;;;;;;;31.39;51.21;99209.61;1641111;87;20148;-86
2021/06/21 10:11:36;;;;;;;;;;;;;;;31.44;51.41;99202.80;1642625;87;20145;-86
2021/06/21 10:14:10;;;;;;;;;;;;;;;31.49;51.01;99203.63;1642202;86;20175;-86
2021/06/21 10:16:36;;;;;;;;;;;;;;;31.57;51.10;99198.14;1642091;86;20165;-86
2021/06/21 10:19:04;;;;;;;;;;;;;;;31.64;50.84;99203.30;1641648;87;20289;-87
2021/06/21 10:21:31;;;;;;;;;;;;;;;31.71;49.30;99198.37;1639661;87;20160;-85
2021/06/21 10:23:57;;;;;;;;;;;;;;;31.74;48.11;99194.53;1645805;86;20132;-86
2021/06/21 10:26:23;;;;;;;;;;;;;;;31.77;47.65;99185.80;1658434;85;20464;-85
2021/06/21 10:28:50;;;;;;;;;;;;;;;31.82;46.59;99190.95;1661091;85;20182;-85
2021/06/21 10:31:19;;;;;;;;;;;;;;;31.86;46.18;99186.60;1662141;85;20416;-86
2021/06/21 10:33:45;;;;;;;;;;;;;;;31.91;45.23;99178.41;1669012;85;20126;-86
2021/06/21 10:36:10;;;;;;;;;;;;;;;31.96;45.80;99179.22;1665866;85;20107;-87
2021/06/21 10:38:36;;;;;;;;;;;;;;;32.05;44.87;99176.73;1667258;85;20149;-86
2021/06/21 10:41:08;;;;;;;;;;;;;;;32.17;42.90;99175.02;1662824;85;20466;-86
2021/06/21 10:43:45;;;;;;;;;;;;;;;32.24;43.93;99175.52;1668108;84;20206;-87
2021/06/21 10:46:21;;;;;;;;;;;;;;;32.33;44.91;99163.46;1657326;85;20149;-86
2021/06/21 10:49:07;;;;;;;;;;;;;;;32.45;44.54;99163.97;1649937;85;20165;-87
2021/06/21 10:51:38;;;;;;;;;;;;;;;32.55;43.64;99169.91;1645764;86;20125;-86
2021/06/21 10:54:07;;;;;;;;;;;;;;;32.65;43.29;99169.27;1649576;85;20164;-85
2021/06/21 10:56:48;;;;;;;;;;;;;;;32.74;41.46;99156.36;1639452;87;20149;-88
2021/06/21 10:59:17;;;;;;;;;;;;;;;32.82;41.61;99162.59;1648029;86;20205;-88
2021/06/21 11:01:45;;;;;;;;;;;;;;;32.88;41.98;99155.43;1642503;87;20132;-87
2021/06/21 11:04:11;;;;;;;;;;;;;;;32.90;41.05;99145.57;1646111;87;20171;-87
2021/06/21 11:06:38;;;;;;;;;;;;;;;32.91;39.86;99149.95;1638230;86;20101;-87
2021/06/21 11:09:05;;;;;;;;;;;;;;;32.96;40.16;99150.44;1654361;86;20148;-87
2021/06/21 11:11:44;;;;;;;;;;;;;;;33.03;39.95;99145.48;1646584;86;20159;-86
2021/06/21 11:14:24;;;;;;;;;;;;;;;33.09;39.53;99147.07;1642792;86;20388;-86
2021/06/21 11:16:53;;;;;;;;;;;;;;;33.15;39.93;99139.90;1652723;87;20118;-87
2021/06/21 11:19:25;;;;;;;;;;;;;;;33.24;39.14;99151.03;1644737;86;20150;-86
2021/06/21 11:22:00;;;;;;;;;;;;;;;33.28;38.90;99143.06;1649069;87;20140;-86
2021/06/21 11:24:38;;;;;;;;;;;;;;;33.34;37.94;99152.84;1649233;86;20165;-85
2021/06/21 11:27:13;;;;;;;;;;;;;;;33.35;38.79;99146.26;1642524;86;20466;-84
2021/06/21 11:29:47;;;;;;;;;;;;;;;33.37;37.86;99143.50;1643470;85;20418;-84
2021/06/21 11:32:14;;;;;;;;;;;;;;;33.41;39.17;99148.39;1646922;86;20133;-85
2021/06/21 11:35:00;;;;;;;;;;;;;;;33.47;37.47;99151.34;1652813;85;20531;-84
2021/06/21 11:37:52;;;;;;;;;;;;;;;33.48;38.10;99152.40;1656817;85;20136;-84
2021/06/21 11:40:15;;;;;;;;;;;;;;;33.53;38.71;99147.44;1646931;85;20150;-85
2021/06/21 11:42:43;;;;;;;;;;;;;;;33.56;39.12;99150.41;1647312;85;20195;-85
2021/06/21 11:45:10;;;;;;;;;;;;;;;33.62;38.38;99144.33;1639791;86;20108;-85
2021/06/21 11:47:38;;;;;;;;;;;;;;;33.67;38.50;99143.47;1653515;85;20113;-85
2021/06/21 11:50:13;;;;;;;;;;;;;;;33.73;37.83;99143.12;1641088;87;20143;-85
2021/06/21 11:52:40;;;;;;;;;;;;;;;33.77;37.55;99137.31;1643766;87;20117;-84
2021/06/21 11:55:17;;;;;;;;;;;;;;;33.79;37.96;99130.98;1641720;87;20407;-85
2021/06/21 11:57:47;;;;;;;;;;;;;;;33.87;37.22;99130.09;1643431;87;20418;-84
2021/06/21 12:00:18;;;;;;;;;;;;;;;33.90;37.02;99127.58;1638531;87;20191;-84
2021/06/21 12:02:44;;;;;;;;;;;;;;;33.93;37.14;99125.63;1646808;86;20132;-85
2021/06/21 12:05:19;;;;;;;;;;;;;;;33.96;36.61;99118.72;1644444;87;20106;-84
2021/06/21 12:07:44;;;;;;;;;;;;;;;33.97;37.09;99115.70;1638105;86;20128;-84
2021/06/21 12:10:16;;;;;;;;;;;;;;;34.00;37.55;99102.80;1641850;87;20109;-84
2021/06/21 12:12:44;;;;;;;;;;;;;;;34.01;37.13;99100.35;1640528;87;20146;-84
2021/06/21 12:15:13;;;;;;;;;;;;;;;34.04;36.22;99093.48;1638871;86;20108;-85
2021/06/21 12:17:39;;;;;;;;;;;;;;;34.05;36.00;99087.70;1640234;86;20136;-85
2021/06/21 12:20:15;;;;;;;;;;;;;;;34.10;36.85;99079.98;1644772;87;20409;-85
2021/06/21 12:22:43;;;;;;;;;;;;;;;34.16;36.86;99067.85;1643333;86;20434;-88
2021/06/21 12:25:13;;;;;;;;;;;;;;;34.20;35.33;99057.13;1637556;87;20140;-85
2021/06/21 12:27:39;;;;;;;;;;;;;;;34.21;35.71;99056.80;1642124;87;20140;-85
2021/06/21 12:30:05;;;;;;;;;;;;;;;34.28;36.16;99064.08;1641596;87;20135;-85
2021/06/21 12:32:34;;;;;;;;;;;;;;;34.37;36.29;99069.70;1638670;86;20143;-86
2021/06/21 12:35:03;;;;;;;;;;;;;;;34.41;35.46;99073.45;1643377;85;20181;-85
2021/06/21 12:37:35;;;;;;;;;;;;;;;34.45;35.29;99069.03;1642041;87;20100;-85
2021/06/21 12:40:13;;;;;;;;;;;;;;;34.43;34.94;99072.61;1640089;86;20132;-86
2021/06/21 12:42:39;;;;;;;;;;;;;;;34.34;35.65;99070.85;1642475;86;20139;-86
2021/06/21 12:45:19;;;;;;;;;;;;;;;34.22;35.78;99075.41;1639437;86;20149;-84
2021/06/21 12:47:48;;;;;;;;;;;;;;;34.07;35.73;99093.70;1638839;87;20133;-84
2021/06/21 12:50:17;;;;;;;;;;;;;;;33.89;35.85;99105.41;1628252;87;20437;-85
2021/06/21 12:52:45;;;;;;;;;;;;;;;33.74;35.52;99113.84;1642209;85;20196;-85
2021/06/21 12:55:13;;;;;;;;;;;;;;;33.59;35.80;99122.48;1666563;85;20165;-85
2021/06/21 12:57:50;;;;;;;;;;;;;;;33.50;36.29;99125.63;1652680;85;20169;-85
2021/06/21 13:00:18;;;;;;;;;;;;;;;33.43;36.54;99122.37;1660655;85;20144;-89